createdAt,value
2024-01-15T00:02:12.816Z,7.29
2024-01-15T00:07:15.625Z,7.32
2024-01-15T00:12:18.211Z,7.31
2024-01-15T00:17:21.183Z,7.37
2024-01-15T00:22:26.597Z,7.45
2024-01-15T00:27:29.206Z,7.50
2024-01-15T00:32:32.761Z,7.56
2024-01-15T00:37:35.797Z,7.57
2024-01-15T00:42:38.793Z,7.58
2024-01-15T00:47:41.625Z,7.60
2024-01-15T00:52:44.938Z,7.64
2024-01-15T00:57:48.655Z,7.71
2024-01-15T01:02:52.115Z,7.79
2024-01-15T01:07:55.261Z,7.82
2024-01-15T01:12:58.041Z,7.88
2024-01-15T01:18:01.821Z,7.86
2024-01-15T01:23:05.677Z,7.82
2024-01-15T01:28:09.205Z,7.78
2024-01-15T01:33:13.155Z,7.81
2024-01-15T01:38:16.707Z,7.86
2024-01-15T01:43:20.005Z,7.95
2024-01-15T01:48:23.085Z,7.94
2024-01-15T01:53:30.726Z,8.00
2024-01-15T01:58:35.984Z,7.96
2024-01-15T02:03:39.505Z,7.95
2024-01-15T02:08:45.481Z,7.95
2024-01-15T02:13:48.356Z,7.97
2024-01-15T02:18:52.515Z,8.00
2024-01-15T02:23:56.072Z,7.96
2024-01-15T02:29:00.348Z,7.94
2024-01-15T02:34:03.576Z,7.94
2024-01-15T02:39:07.054Z,7.88
2024-01-15T02:44:13.459Z,7.91
2024-01-15T02:49:18.329Z,7.93
2024-01-15T02:54:28.073Z,7.96
2024-01-15T02:59:30.824Z,8.06
2024-01-15T03:04:34.354Z,8.15
2024-01-15T03:09:38.091Z,8.20
2024-01-15T03:14:41.082Z,8.17
2024-01-15T03:19:43.966Z,8.21
2024-01-15T03:24:47.609Z,8.21
2024-01-15T03:29:51.079Z,8.20
2024-01-15T03:34:56.060Z,8.18
2024-01-15T03:39:58.855Z,8.02
2024-01-15T03:45:02.252Z,7.95
2024-01-15T03:50:07.415Z,7.93
2024-01-15T03:55:12.078Z,7.97
2024-01-15T04:00:19.165Z,7.93
2024-01-15T04:05:22.988Z,8.00
2024-01-15T04:10:26.365Z,7.99
2024-01-15T04:15:30.240Z,7.92
2024-01-15T04:20:33.317Z,7.92
2024-01-15T04:25:36.380Z,7.93
2024-01-15T04:30:39.260Z,7.92
2024-01-15T04:35:42.706Z,7.96
2024-01-15T04:40:46.416Z,7.99
2024-01-15T04:45:51.641Z,8.03
2024-01-15T04:50:57.350Z,8.07
2024-01-15T04:56:00.301Z,8.14
2024-01-15T05:01:03.723Z,8.26
2024-01-15T05:06:09.335Z,8.28
2024-01-15T05:11:13.188Z,8.21
2024-01-15T05:16:16.548Z,8.18
2024-01-15T05:21:19.320Z,8.32
2024-01-15T05:26:24.560Z,8.49
2024-01-15T05:31:28.588Z,8.55
2024-01-15T05:36:32.497Z,8.33
2024-01-15T05:41:35.541Z,8.24
2024-01-15T05:46:38.509Z,8.21
2024-01-15T05:51:44.511Z,8.14
2024-01-15T05:56:48.330Z,8.10
2024-01-15T06:01:53.521Z,8.07
2024-01-15T06:06:56.772Z,8.09
2024-01-15T06:11:59.495Z,8.13
2024-01-15T06:17:02.446Z,8.12
2024-01-15T06:22:06.316Z,8.15
2024-01-15T06:27:09.110Z,8.18
2024-01-15T06:32:12.260Z,8.24
2024-01-15T06:37:16.496Z,8.29
2024-01-15T06:42:19.664Z,8.30
2024-01-15T06:47:23.059Z,8.23
2024-01-15T06:52:26.170Z,8.27
2024-01-15T06:57:28.884Z,8.29
2024-01-15T07:02:32.183Z,8.31
2024-01-15T07:07:36.004Z,8.32
2024-01-15T07:12:39.617Z,8.33
2024-01-15T07:17:42.968Z,8.31
2024-01-15T07:22:45.855Z,8.34
2024-01-15T07:27:49.247Z,8.34
2024-01-15T07:32:52.217Z,8.32
2024-01-15T07:37:56.541Z,8.35
2024-01-15T07:42:59.464Z,8.34
2024-01-15T07:48:02.588Z,8.33
2024-01-15T07:53:06.252Z,8.35
2024-01-15T07:58:15.889Z,8.38
2024-01-15T08:03:21.177Z,8.39
2024-01-15T08:08:24.664Z,8.39
2024-01-15T08:13:29.419Z,8.41
2024-01-15T08:18:32.385Z,8.43
2024-01-15T08:23:36.027Z,8.51
2024-01-15T08:28:40.083Z,8.56
2024-01-15T08:33:44.025Z,8.58
2024-01-15T08:38:46.886Z,8.62
2024-01-15T08:43:51.843Z,8.67
2024-01-15T08:48:55.858Z,8.73
2024-01-15T08:54:00.210Z,8.78
2024-01-15T08:59:04.916Z,8.84
2024-01-15T09:04:08.880Z,8.89
2024-01-15T09:09:19.081Z,8.99
2024-01-15T09:14:33.143Z,9.10
2024-01-15T09:19:43.521Z,9.14
2024-01-15T09:24:48.722Z,9.16
2024-01-15T09:29:53.075Z,9.19
2024-01-15T09:34:56.862Z,9.27
2024-01-15T09:39:59.551Z,9.37
2024-01-15T09:45:20.011Z,9.64
2024-01-15T09:50:27.820Z,9.88
2024-01-15T09:55:32.006Z,9.99
2024-01-15T10:00:40.529Z,10.04
2024-01-15T10:05:46.013Z,10.17
2024-01-15T10:10:49.862Z,10.21
2024-01-15T10:15:53.796Z,10.26
2024-01-15T10:20:57.299Z,10.32
2024-01-15T10:26:01.492Z,10.43
2024-01-15T10:31:05.448Z,10.49
2024-01-15T10:36:13.789Z,10.56
2024-01-15T10:41:18.378Z,10.63
2024-01-15T10:46:21.448Z,10.69
2024-01-15T10:51:27.602Z,10.71
2024-01-15T10:56:37.866Z,10.71
2024-01-15T11:01:41.034Z,10.91
2024-01-15T11:06:46.451Z,11.01
2024-01-15T11:11:54.920Z,11.02
2024-01-15T11:17:03.147Z,11.09
2024-01-15T11:22:08.868Z,11.16
2024-01-15T11:27:13.114Z,11.23
2024-01-15T11:32:18.825Z,11.30
2024-01-15T11:37:25.493Z,11.47
2024-01-15T11:42:29.401Z,11.53
2024-01-15T11:48:00.700Z,11.67
2024-01-15T11:53:07.453Z,11.75
2024-01-15T11:58:11.554Z,11.88
2024-01-15T12:03:15.442Z,11.84
2024-01-15T12:08:25.603Z,11.92
2024-01-15T12:13:30.038Z,11.84
2024-01-15T12:18:33.315Z,11.87
2024-01-15T12:23:37.438Z,11.88
2024-01-15T12:28:41.128Z,12.09
2024-01-15T12:33:45.406Z,12.02
2024-01-15T12:38:48.575Z,12.12
2024-01-15T12:43:52.433Z,12.15
2024-01-15T12:48:55.478Z,12.32
2024-01-15T12:53:58.527Z,12.38
2024-01-15T12:59:01.736Z,12.41
2024-01-15T13:04:04.937Z,12.43
2024-01-15T13:09:07.771Z,12.42
2024-01-15T13:14:11.288Z,12.50
2024-01-15T13:19:20.555Z,12.65
2024-01-15T13:24:26.205Z,12.67
2024-01-15T13:29:28.793Z,12.73
2024-01-15T13:34:33.901Z,12.75
2024-01-15T13:39:45.672Z,12.77
2024-01-15T13:44:49.323Z,12.81
2024-01-15T13:49:52.506Z,12.92
2024-01-15T13:54:55.290Z,12.95
2024-01-15T13:59:58.299Z,13.00
2024-01-15T14:05:01.458Z,12.98
2024-01-15T14:10:07.203Z,12.94
2024-01-15T14:15:10.745Z,12.97
2024-01-15T14:20:14.525Z,12.99
2024-01-15T14:25:17.445Z,12.87
2024-01-15T14:30:20.269Z,12.83
2024-01-15T14:35:23.421Z,12.80
2024-01-15T14:40:27.477Z,12.73
2024-01-15T14:45:31.712Z,12.79
2024-01-15T14:50:34.457Z,12.85
2024-01-15T14:55:37.832Z,13.06
2024-01-15T15:00:40.506Z,13.07
2024-01-15T15:05:43.888Z,13.09
2024-01-15T15:10:46.969Z,13.11
2024-01-15T15:15:51.377Z,13.09
2024-01-15T15:20:55.789Z,12.98
2024-01-15T15:26:00.747Z,12.93
2024-01-15T15:31:08.525Z,12.98
2024-01-15T15:36:13.547Z,12.96
2024-01-15T15:41:17.663Z,12.86
2024-01-15T15:46:20.991Z,12.91
2024-01-15T15:51:24.390Z,12.89
2024-01-15T15:56:27.560Z,12.84
2024-01-15T16:01:30.394Z,12.83
2024-01-15T16:06:33.121Z,12.83
2024-01-15T16:11:36.002Z,12.78
2024-01-15T16:23:12.036Z,12.74
2024-01-15T16:23:39.786Z,12.61
2024-01-15T16:27:24.845Z,12.53
2024-01-15T16:32:27.743Z,12.49
2024-01-15T16:37:30.592Z,12.42
2024-01-15T16:42:33.396Z,12.37
2024-01-15T16:47:36.814Z,12.35
2024-01-15T16:52:41.309Z,12.33
2024-01-15T16:57:44.470Z,12.31
2024-01-15T17:02:47.292Z,12.27
2024-01-15T17:07:50.232Z,12.27
2024-01-15T17:12:52.967Z,12.24
2024-01-15T17:17:55.966Z,12.21
2024-01-15T17:22:59.697Z,12.07
2024-01-15T17:28:03.229Z,12.20
2024-01-15T17:33:08.761Z,12.15
2024-01-15T17:38:13.598Z,12.11
2024-01-15T17:43:16.916Z,12.07
2024-01-15T17:48:20.233Z,12.03
2024-01-15T17:53:24.309Z,12.07
2024-01-15T17:58:28.765Z,12.10
2024-01-15T18:03:32.663Z,12.11
2024-01-15T18:08:38.835Z,12.12
2024-01-15T18:13:42.894Z,12.09
2024-01-15T18:18:46.854Z,12.09
2024-01-15T18:23:50.408Z,12.10
2024-01-15T18:28:52.773Z,12.07
2024-01-15T18:33:55.673Z,12.13
2024-01-15T18:39:01.002Z,12.15
2024-01-15T18:44:03.926Z,12.11
2024-01-15T18:49:07.636Z,12.12
2024-01-15T18:54:12.104Z,12.16
2024-01-15T18:59:15.814Z,12.15
2024-01-15T19:04:19.023Z,12.14
2024-01-15T19:09:22.056Z,12.12
2024-01-15T19:14:25.241Z,12.13
2024-01-15T19:19:28.243Z,12.17
2024-01-15T19:24:31.069Z,12.14
2024-01-15T19:29:38.132Z,12.18
2024-01-15T19:34:45.152Z,12.20
2024-01-15T19:39:54.410Z,12.19
2024-01-15T19:44:59.831Z,12.20
2024-01-15T19:50:03.457Z,12.26
2024-01-15T19:55:08.095Z,12.33
2024-01-15T20:00:13.717Z,12.32
2024-01-15T20:05:17.811Z,12.36
2024-01-15T20:10:24.659Z,12.38
2024-01-15T20:15:32.888Z,12.43
2024-01-15T20:20:35.956Z,12.41
2024-01-15T20:25:40.866Z,12.51
2024-01-15T20:30:45.745Z,12.52
2024-01-15T20:35:49.256Z,12.50
2024-01-15T20:40:52.223Z,12.55
2024-01-15T20:45:54.836Z,12.53
2024-01-15T20:50:59.749Z,12.65
2024-01-15T20:56:02.624Z,12.54
2024-01-15T21:01:06.364Z,12.61
2024-01-15T21:06:10.593Z,12.56
2024-01-15T21:11:15.375Z,12.59
2024-01-15T21:16:18.625Z,12.68
2024-01-15T21:21:22.566Z,12.71
2024-01-15T21:26:25.628Z,12.66
2024-01-15T21:31:28.578Z,12.70
2024-01-15T21:36:58.833Z,12.70
2024-01-15T21:42:03.757Z,12.70
2024-01-15T21:47:06.639Z,12.68
2024-01-15T21:52:10.552Z,12.69
2024-01-15T21:57:14.317Z,12.73
2024-01-15T22:02:16.895Z,12.75
2024-01-15T22:07:19.752Z,12.73
2024-01-15T22:12:23.329Z,12.75
2024-01-15T22:17:27.558Z,12.78
2024-01-15T22:22:31.554Z,12.76
2024-01-15T22:27:34.948Z,12.75
2024-01-15T22:32:37.858Z,12.76
2024-01-15T22:37:42.304Z,12.76
2024-01-15T22:42:45.187Z,12.74
2024-01-15T22:47:47.725Z,12.76
2024-01-15T22:52:50.749Z,12.75
2024-01-15T22:57:53.664Z,12.74
2024-01-15T23:02:58.832Z,12.78
2024-01-15T23:08:01.890Z,12.73
2024-01-15T23:13:06.240Z,12.73
2024-01-15T23:18:13.086Z,12.73
2024-01-15T23:23:17.249Z,12.77
2024-01-15T23:28:22.145Z,12.73
2024-01-15T23:33:26.635Z,12.69
2024-01-15T23:38:31.514Z,12.77
2024-01-15T23:43:36.934Z,12.70
2024-01-15T23:48:42.858Z,12.65
2024-01-15T23:53:48.137Z,12.64
2024-01-15T23:58:51.707Z,12.65
